createdAt,value
2018-01-16T07:05:25.235Z,15.61
2018-01-16T07:05:43.864Z,15.42
2018-01-16T07:06:02.388Z,15.23
2018-01-16T07:06:20.651Z,15.05
2018-01-16T07:06:39.252Z,14.86
2018-01-16T07:06:57.849Z,14.67
2018-01-16T07:07:16.488Z,14.49
2018-01-16T07:07:34.800Z,14.30
2018-01-16T07:07:53.448Z,14.13
2018-01-16T07:08:11.701Z,13.96
2018-01-16T07:08:30.255Z,13.80
2018-01-16T07:08:48.811Z,13.64
2018-01-16T07:09:07.371Z,13.49
2018-01-16T07:09:25.610Z,13.33
2018-01-16T07:09:44.227Z,13.18
2018-01-16T07:10:02.805Z,13.04
2018-01-16T07:10:21.364Z,12.91
2018-01-16T07:10:39.654Z,12.77
2018-01-16T07:10:58.219Z,12.65
2018-01-16T07:11:16.806Z,12.53
2018-01-16T07:11:35.391Z,12.40
2018-01-16T07:11:54.147Z,12.28
2018-01-16T07:12:12.668Z,12.17
2018-01-16T07:12:31.216Z,12.06
2018-01-16T07:12:50.005Z,11.95
2018-01-16T07:13:08.557Z,11.85
2018-01-16T07:13:27.261Z,11.75
2018-01-16T07:13:45.844Z,11.65
2018-01-16T07:14:04.432Z,11.57
2018-01-16T07:14:22.661Z,11.47
2018-01-16T07:14:41.351Z,11.39
2018-01-16T07:14:59.629Z,11.32
2018-01-16T07:15:18.217Z,11.24
2018-01-16T07:15:36.834Z,11.17
2018-01-16T07:15:55.446Z,11.09
2018-01-16T07:16:13.971Z,11.02
2018-01-16T07:16:32.509Z,10.95
2018-01-16T07:16:51.046Z,10.88
2018-01-16T07:17:10.528Z,10.82
2018-01-16T07:17:29.053Z,10.75
2018-01-16T07:17:47.571Z,10.69
2018-01-16T07:18:06.131Z,10.64
2018-01-16T07:18:24.669Z,10.58
2018-01-16T07:18:43.204Z,10.53
2018-01-16T07:19:01.440Z,10.48
2018-01-16T07:19:19.971Z,10.44
2018-01-16T07:19:38.514Z,10.39
2018-01-16T07:19:56.924Z,10.34
2018-01-16T07:20:15.459Z,10.31
2018-01-16T07:20:34.020Z,10.26
2018-01-16T07:20:52.573Z,10.22
2018-01-16T07:21:11.182Z,10.17
2018-01-16T07:21:29.802Z,10.14
2018-01-16T07:21:48.336Z,10.10
2018-01-16T07:22:06.927Z,10.07
2018-01-16T07:22:25.512Z,10.04
2018-01-16T07:22:44.042Z,10.01
2018-01-16T07:23:02.353Z,9.97
2018-01-16T07:23:20.885Z,9.94
2018-01-16T07:23:39.399Z,9.91
2018-01-16T07:23:57.735Z,9.88
2018-01-16T07:24:16.061Z,9.86
2018-01-16T07:24:34.140Z,9.82
2018-01-16T07:24:52.663Z,9.80
2018-01-16T07:25:11.322Z,9.78
2018-01-16T07:25:29.867Z,9.76
2018-01-16T07:25:48.395Z,9.73
2018-01-16T07:26:07.005Z,9.71
2018-01-16T07:26:25.820Z,9.69
2018-01-16T07:26:43.915Z,9.67
2018-01-16T07:27:02.153Z,9.65
2018-01-16T07:27:20.728Z,9.63
2018-01-16T07:27:39.284Z,9.61
2018-01-16T07:27:57.813Z,9.60
2018-01-16T07:28:16.157Z,9.58
2018-01-16T07:28:34.742Z,9.56
2018-01-16T07:28:53.420Z,9.54
2018-01-16T07:29:11.815Z,9.53
2018-01-16T07:29:31.164Z,9.52
2018-01-16T07:29:49.731Z,9.51
2018-01-16T07:30:07.999Z,9.50
2018-01-16T07:30:26.566Z,9.48
2018-01-16T07:30:45.135Z,9.47
2018-01-16T07:31:03.702Z,9.46
2018-01-16T07:31:21.939Z,9.44
2018-01-16T07:31:40.499Z,9.42
2018-01-16T07:31:58.789Z,9.41
2018-01-16T07:32:17.079Z,9.40
2018-01-16T07:32:35.790Z,9.39
2018-01-16T07:32:54.339Z,9.38
2018-01-16T07:33:12.900Z,9.36
2018-01-16T07:33:31.446Z,9.35
2018-01-16T07:33:50.060Z,9.34
2018-01-16T07:34:08.651Z,9.33
2018-01-16T07:34:27.012Z,9.31
2018-01-16T07:34:45.553Z,9.30
2018-01-16T07:35:03.867Z,9.29
2018-01-16T07:35:22.401Z,9.28
2018-01-16T07:35:40.954Z,9.26
2018-01-16T07:35:59.600Z,9.26
2018-01-16T07:36:18.158Z,9.25
2018-01-16T07:36:36.907Z,9.24
2018-01-16T07:36:55.484Z,9.23
2018-01-16T07:37:13.801Z,9.22
2018-01-16T07:37:32.342Z,9.22
2018-01-16T07:37:51.163Z,9.21
2018-01-16T07:38:09.734Z,9.20
2018-01-16T07:38:28.271Z,9.20
2018-01-16T07:38:46.552Z,9.19
2018-01-16T07:39:04.628Z,9.19
2018-01-16T07:39:23.176Z,9.19
2018-01-16T07:39:41.723Z,9.18
2018-01-16T07:40:00.386Z,9.17
2018-01-16T07:40:19.068Z,9.16
2018-01-16T07:40:37.608Z,9.15
2018-01-16T07:40:56.190Z,9.15
2018-01-16T07:41:14.506Z,9.13
2018-01-16T07:41:33.138Z,9.13
2018-01-16T07:41:51.379Z,9.13
2018-01-16T07:42:09.965Z,9.12
2018-01-16T07:42:28.509Z,9.11
2018-01-16T07:42:47.071Z,9.10
2018-01-16T07:43:05.317Z,9.09
2018-01-16T07:43:23.921Z,9.08
2018-01-16T07:43:42.207Z,9.08
2018-01-16T07:44:00.747Z,9.07
2018-01-16T07:44:19.323Z,9.06
2018-01-16T07:44:37.854Z,9.06
2018-01-16T07:44:56.389Z,9.05
2018-01-16T07:45:14.934Z,9.05
2018-01-16T07:45:33.199Z,9.03
2018-01-16T07:45:51.752Z,9.02
2018-01-16T07:46:10.318Z,9.01
2018-01-16T07:46:28.857Z,9.00
2018-01-16T07:46:47.084Z,8.99
2018-01-16T07:47:05.632Z,8.98
2018-01-16T07:47:24.224Z,8.96
2018-01-16T07:47:42.744Z,8.95
2018-01-16T07:48:01.568Z,8.94
2018-01-16T07:48:20.122Z,8.93
2018-01-16T07:48:38.697Z,8.92
2018-01-16T07:48:57.527Z,8.90
2018-01-16T07:49:16.078Z,8.90
2018-01-16T07:49:34.691Z,8.88
2018-01-16T07:49:52.922Z,8.87
2018-01-16T07:50:11.541Z,8.86
2018-01-16T07:50:29.931Z,8.85
2018-01-16T07:50:48.524Z,8.85
2018-01-16T07:51:06.783Z,8.84
2018-01-16T07:51:25.319Z,8.84
2018-01-16T07:51:43.921Z,8.84
2018-01-16T07:52:04.306Z,8.83
2018-01-16T07:52:22.644Z,8.83
2018-01-16T07:52:41.266Z,8.84
2018-01-16T07:52:59.815Z,8.84
2018-01-16T07:53:18.396Z,8.84
2018-01-16T07:53:37.074Z,8.84
2018-01-16T07:53:55.590Z,8.84
2018-01-16T07:54:14.107Z,8.85
2018-01-16T07:54:32.707Z,8.85
2018-01-16T07:54:51.347Z,8.86
2018-01-16T07:55:09.585Z,8.86
2018-01-16T07:55:28.111Z,8.86
2018-01-16T07:55:46.634Z,8.87
2018-01-16T07:56:05.163Z,8.88
2018-01-16T07:56:23.773Z,8.88
2018-01-16T07:56:42.317Z,8.88
2018-01-16T07:57:00.562Z,8.89
2018-01-16T07:57:19.115Z,8.90
2018-01-16T07:57:37.364Z,8.91
2018-01-16T07:57:57.068Z,8.92
2018-01-16T07:58:15.349Z,8.93
2018-01-16T07:58:33.867Z,8.93
2018-01-16T07:58:52.419Z,8.93
2018-01-16T07:59:10.950Z,8.94
2018-01-16T07:59:29.515Z,8.94
2018-01-16T07:59:48.091Z,8.94
2018-01-16T08:00:06.322Z,8.95
2018-01-16T08:00:24.915Z,8.95
2018-01-16T08:00:43.194Z,8.96
2018-01-16T08:01:01.776Z,8.96
2018-01-16T08:01:20.315Z,8.96
2018-01-16T08:01:38.849Z,8.96
2018-01-16T08:01:57.084Z,8.96
2018-01-16T08:02:15.703Z,8.96
2018-01-16T08:02:34.223Z,8.96
2018-01-16T08:02:52.749Z,8.96
2018-01-16T08:03:11.016Z,8.96
2018-01-16T08:03:29.592Z,8.97
2018-01-16T08:03:48.153Z,8.97
2018-01-16T08:04:06.827Z,8.96
2018-01-16T08:04:25.054Z,8.97
2018-01-16T08:04:43.617Z,8.97
2018-01-16T08:05:02.210Z,8.97
2018-01-16T08:05:20.783Z,8.97
2018-01-16T08:05:39.075Z,8.97
2018-01-16T08:05:57.623Z,8.97
2018-01-16T08:06:15.872Z,8.97
2018-01-16T08:06:34.453Z,8.97
2018-01-16T08:06:53.011Z,8.98
2018-01-16T08:07:12.574Z,8.97
2018-01-16T08:07:30.835Z,8.98
2018-01-16T08:07:49.631Z,8.98
2018-01-16T08:08:07.863Z,8.99
2018-01-16T08:08:26.483Z,8.99
2018-01-16T08:08:44.724Z,8.99
2018-01-16T08:09:03.111Z,9.00
2018-01-16T08:09:21.640Z,8.99
2018-01-16T08:09:40.199Z,9.00
2018-01-16T08:09:58.807Z,9.00
2018-01-16T08:10:17.348Z,9.01
2018-01-16T08:10:35.597Z,9.01
2018-01-16T08:10:54.138Z,9.02
2018-01-16T08:11:12.662Z,9.01
2018-01-16T08:11:31.202Z,9.02
2018-01-16T08:11:49.716Z,9.03
2018-01-16T08:12:08.247Z,9.03
2018-01-16T08:12:26.648Z,9.04
2018-01-16T08:12:45.223Z,9.03
2018-01-16T08:13:03.536Z,9.03
2018-01-16T08:13:22.171Z,9.04
2018-01-16T08:13:41.027Z,9.04
2018-01-16T08:13:59.552Z,9.04
2018-01-16T08:14:18.094Z,9.05
2018-01-16T08:14:36.425Z,9.05
2018-01-16T08:14:54.980Z,9.05
2018-01-16T08:15:13.539Z,9.05
2018-01-16T08:15:32.088Z,9.05
2018-01-16T08:15:50.311Z,9.05
2018-01-16T08:16:08.843Z,9.05
2018-01-16T08:16:27.390Z,9.05
2018-01-16T08:16:45.963Z,9.06
2018-01-16T08:17:04.792Z,9.06
2018-01-16T08:17:23.344Z,9.06
2018-01-16T08:17:41.923Z,9.07
2018-01-16T08:18:00.191Z,9.07
2018-01-16T08:18:18.739Z,9.08
2018-01-16T08:18:37.311Z,9.08
2018-01-16T08:18:56.037Z,9.08
2018-01-16T08:19:14.577Z,9.08
2018-01-16T08:19:33.170Z,9.10
2018-01-16T08:19:51.704Z,9.10
2018-01-16T08:20:09.995Z,9.10
2018-01-16T08:20:28.524Z,9.10
2018-01-16T08:20:47.151Z,9.11
2018-01-16T08:21:05.717Z,9.11
2018-01-16T08:21:24.031Z,9.11
2018-01-16T08:21:42.735Z,9.12
2018-01-16T08:22:01.039Z,9.12
2018-01-16T08:22:19.627Z,9.11
2018-01-16T08:22:37.922Z,9.12
2018-01-16T08:22:56.704Z,9.12
2018-01-16T08:23:15.708Z,9.12
2018-01-16T08:23:34.295Z,9.11
2018-01-16T08:23:52.823Z,9.11
2018-01-16T08:24:11.391Z,9.11
2018-01-16T08:24:29.955Z,9.10
2018-01-16T08:24:48.492Z,9.10
2018-01-16T08:25:06.737Z,9.09
2018-01-16T08:25:25.286Z,9.09
2018-01-16T08:25:43.813Z,9.08
2018-01-16T08:26:02.355Z,9.08
2018-01-16T08:26:20.644Z,9.08
2018-01-16T08:26:39.228Z,9.07
2018-01-16T08:26:57.841Z,9.07
2018-01-16T08:27:16.591Z,9.06
2018-01-16T08:27:35.190Z,9.06
2018-01-16T08:27:53.746Z,9.06
2018-01-16T08:28:12.346Z,9.05
2018-01-16T08:28:45.597Z,9.04
2018-01-16T08:29:19.207Z,9.03
2018-01-16T08:30:20.723Z,8.99
2018-01-16T08:30:54.239Z,8.96
2018-01-16T08:31:27.795Z,8.93
2018-01-16T08:32:01.313Z,8.90
2018-01-16T08:32:34.944Z,8.88
2018-01-16T08:33:08.529Z,8.86
2018-01-16T08:33:42.130Z,8.85
2018-01-16T08:34:15.655Z,8.83
2018-01-16T08:34:49.007Z,8.82
2018-01-16T08:35:23.284Z,8.81
2018-01-16T08:35:56.852Z,8.80
2018-01-16T08:36:30.433Z,8.79
2018-01-16T08:37:04.056Z,8.78
2018-01-16T08:37:37.593Z,8.77
2018-01-16T08:38:11.117Z,8.76
2018-01-16T08:38:44.654Z,8.75
2018-01-16T08:39:18.223Z,8.74
2018-01-16T08:39:51.762Z,8.73
2018-01-16T08:40:25.396Z,8.71
2018-01-16T08:40:59.023Z,8.70
2018-01-16T08:41:32.556Z,8.68
2018-01-16T08:42:06.139Z,8.66
2018-01-16T08:42:39.738Z,8.64
2018-01-16T08:43:13.284Z,8.63
2018-01-16T08:43:46.384Z,8.62
2018-01-16T08:44:19.930Z,8.62
2018-01-16T08:44:53.607Z,8.62
2018-01-16T08:45:27.128Z,8.63
2018-01-16T08:46:01.445Z,8.65
2018-01-16T08:46:34.983Z,8.67
2018-01-16T08:47:08.510Z,8.69
2018-01-16T08:47:42.167Z,8.72
2018-01-16T08:48:15.698Z,8.75
2018-01-16T08:48:49.293Z,8.78
2018-01-16T08:49:22.831Z,8.82
2018-01-16T08:49:56.478Z,8.84
2018-01-16T08:50:40.010Z,8.88
2018-01-16T09:04:13.652Z,8.95
2018-01-16T09:04:47.176Z,8.97
2018-01-16T09:05:20.763Z,9.00
2018-01-16T09:05:54.276Z,9.03
2018-01-16T09:06:27.801Z,9.07
2018-01-16T09:07:01.325Z,9.10
2018-01-16T09:07:34.903Z,9.13
2018-01-16T09:08:08.446Z,9.17
2018-01-16T09:08:41.983Z,9.20
2018-01-16T09:09:15.534Z,9.22
2018-01-16T09:09:49.067Z,9.24
2018-01-16T09:10:22.594Z,9.26
2018-01-16T09:10:56.115Z,9.27
2018-01-16T09:11:30.042Z,9.28
2018-01-16T09:12:03.584Z,9.29
2018-01-16T09:12:37.111Z,9.30
2018-01-16T09:13:10.701Z,9.30
2018-01-16T09:13:44.280Z,9.32
2018-01-16T09:14:17.834Z,9.31
2018-01-16T09:14:51.418Z,9.32
2018-01-16T09:15:24.940Z,9.32
2018-01-16T09:15:58.470Z,9.33
2018-01-16T09:16:32.027Z,9.34
2018-01-16T09:17:05.548Z,9.35
2018-01-16T09:17:39.075Z,9.35
2018-01-16T09:18:12.636Z,9.37
2018-01-16T09:18:46.196Z,9.37
2018-01-16T09:19:19.766Z,9.38
2018-01-16T09:19:53.282Z,9.37
2018-01-16T09:20:26.928Z,9.38
2018-01-16T09:21:00.454Z,9.37
2018-01-16T09:21:33.971Z,9.36
2018-01-16T09:22:07.563Z,9.36
2018-01-16T09:22:41.080Z,9.35
2018-01-16T09:23:14.649Z,9.34
2018-01-16T09:23:48.204Z,9.32
2018-01-16T09:24:21.790Z,9.31
2018-01-16T09:24:55.420Z,9.28
2018-01-16T09:25:29.031Z,9.26
2018-01-16T09:26:02.596Z,9.23
2018-01-16T09:26:36.132Z,9.20
2018-01-16T09:27:09.661Z,9.17
2018-01-16T09:27:43.198Z,9.15
2018-01-16T09:28:16.711Z,9.13
2018-01-16T09:28:50.231Z,9.11
2018-01-16T09:29:23.775Z,9.08
2018-01-16T09:29:57.318Z,9.06
2018-01-16T09:30:31.020Z,9.04
2018-01-16T09:31:04.545Z,9.01
2018-01-16T09:31:38.160Z,9.00
2018-01-16T09:32:11.848Z,8.97
2018-01-16T09:32:45.382Z,8.94
2018-01-16T09:33:18.889Z,8.91
2018-01-16T09:33:52.443Z,8.88
2018-01-16T09:34:26.334Z,8.85
2018-01-16T09:34:59.875Z,8.82
2018-01-16T09:35:33.401Z,8.79
2018-01-16T09:36:06.929Z,8.75
2018-01-16T09:36:40.444Z,8.69
2018-01-16T09:37:13.813Z,8.62
2018-01-16T09:37:47.355Z,8.54
2018-01-16T09:38:20.921Z,8.48
2018-01-16T09:38:54.470Z,8.41
2018-01-16T09:39:28.076Z,8.34
2018-01-16T09:40:01.629Z,8.27
2018-01-16T09:40:35.193Z,8.22
2018-01-16T09:41:08.771Z,8.16
2018-01-16T09:41:42.328Z,8.10
2018-01-16T09:42:16.014Z,8.05
2018-01-16T09:42:49.534Z,8.01
2018-01-16T09:43:23.051Z,7.97
2018-01-16T09:43:56.583Z,7.93
2018-01-16T09:44:30.125Z,7.89
2018-01-16T09:45:03.718Z,7.86
2018-01-16T09:45:37.068Z,7.82
2018-01-16T09:46:10.628Z,7.80
2018-01-16T09:46:44.323Z,7.77
2018-01-16T09:47:17.839Z,7.76
2018-01-16T09:47:51.377Z,7.74
2018-01-16T09:48:24.927Z,7.73
2018-01-16T09:48:58.522Z,7.72
2018-01-16T09:49:32.120Z,7.71
2018-01-16T09:50:05.644Z,7.69
2018-01-16T09:50:39.220Z,7.68
2018-01-16T09:51:12.744Z,7.67
2018-01-16T09:51:46.353Z,7.66
2018-01-16T09:52:19.972Z,7.64
2018-01-16T09:52:53.567Z,7.62
2018-01-16T09:53:27.075Z,7.60
2018-01-16T09:54:00.614Z,7.58
2018-01-16T09:54:34.232Z,7.57
2018-01-16T09:55:07.743Z,7.56
2018-01-16T09:55:41.260Z,7.55
2018-01-16T09:56:14.829Z,7.53
2018-01-16T09:56:48.455Z,7.53
2018-01-16T09:57:21.988Z,7.52
2018-01-16T09:57:56.399Z,7.52
2018-01-16T09:58:29.918Z,7.51
2018-01-16T09:59:03.506Z,7.51
2018-01-16T09:59:37.111Z,7.51
2018-01-16T10:00:10.400Z,7.52
2018-01-16T10:00:43.931Z,7.53
2018-01-16T10:01:17.444Z,7.52
2018-01-16T10:01:50.959Z,7.52
2018-01-16T10:02:24.546Z,7.51
2018-01-16T10:02:58.089Z,7.49
2018-01-16T10:03:31.665Z,7.47
2018-01-16T10:04:05.231Z,7.45
2018-01-16T10:04:38.787Z,7.42
2018-01-16T10:05:12.428Z,7.39
2018-01-16T10:05:45.941Z,7.37
2018-01-16T10:06:19.455Z,7.34
2018-01-16T10:06:53.018Z,7.32
2018-01-16T10:07:26.575Z,7.30
2018-01-16T10:08:00.113Z,7.28
2018-01-16T10:08:33.655Z,7.25
2018-01-16T10:09:07.939Z,7.23
2018-01-16T10:09:41.494Z,7.22
2018-01-16T10:10:15.061Z,7.21
2018-01-16T10:10:48.570Z,7.20
2018-01-16T10:11:22.091Z,7.18
2018-01-16T10:11:55.724Z,7.16
2018-01-16T10:12:29.242Z,7.14
2018-01-16T10:13:02.776Z,7.13
2018-01-16T10:13:36.332Z,7.10
2018-01-16T10:14:09.913Z,7.07
2018-01-16T10:14:43.551Z,7.05
2018-01-16T10:15:17.107Z,7.01
2018-01-16T10:15:50.627Z,6.98
2018-01-16T10:16:24.151Z,6.95
2018-01-16T10:16:57.658Z,6.91
2018-01-16T10:17:31.187Z,6.88
2018-01-16T10:18:04.703Z,6.83
2018-01-16T10:18:38.268Z,6.80
2018-01-16T10:19:11.857Z,6.77
2018-01-16T10:19:45.416Z,6.75
2018-01-16T10:20:18.935Z,6.72
2018-01-16T10:20:52.476Z,6.70
2018-01-16T10:21:26.017Z,6.68
2018-01-16T10:21:59.565Z,6.66
2018-01-16T10:22:33.085Z,6.64
2018-01-16T10:23:06.661Z,6.63
2018-01-16T10:23:40.191Z,6.60
2018-01-16T10:24:13.716Z,6.59
2018-01-16T10:24:47.300Z,6.59
2018-01-16T10:25:20.993Z,6.58
2018-01-16T10:25:54.527Z,6.57
2018-01-16T10:26:28.075Z,6.58
2018-01-16T10:27:02.459Z,6.58
2018-01-16T10:27:35.987Z,6.58
2018-01-16T10:28:09.492Z,6.59
2018-01-16T10:28:43.008Z,6.59
2018-01-16T10:29:16.586Z,6.59
2018-01-16T10:29:50.160Z,6.59
2018-01-16T10:30:23.833Z,6.59
2018-01-16T10:30:57.600Z,6.61
2018-01-16T10:31:31.145Z,6.61
2018-01-16T10:32:04.726Z,6.63
2018-01-16T10:32:38.296Z,6.64
2018-01-16T10:33:11.860Z,6.65
2018-01-16T10:33:45.640Z,6.66
2018-01-16T10:34:20.099Z,6.67
2018-01-16T10:34:53.658Z,6.69
2018-01-16T10:35:28.120Z,6.71
2018-01-16T10:36:02.334Z,6.72
2018-01-16T10:36:35.925Z,6.73
2018-01-16T10:37:09.503Z,6.75
2018-01-16T10:37:43.016Z,6.77
2018-01-16T10:38:17.333Z,6.78
2018-01-16T10:38:50.873Z,6.80
2018-01-16T10:39:24.475Z,6.80
2018-01-16T10:39:58.065Z,6.82
2018-01-16T10:40:31.572Z,6.83
2018-01-16T10:41:06.263Z,6.84
2018-01-16T10:41:39.792Z,6.85
2018-01-16T10:42:13.347Z,6.87
2018-01-16T10:42:46.904Z,6.87
2018-01-16T10:43:20.437Z,6.89
2018-01-16T10:43:54.055Z,6.90
2018-01-16T10:44:27.587Z,6.92
2018-01-16T10:45:01.959Z,6.93
2018-01-16T10:45:35.511Z,6.95
2018-01-16T10:46:09.019Z,6.96
2018-01-16T10:46:42.568Z,6.97
2018-01-16T10:47:16.126Z,6.98
2018-01-16T10:47:49.648Z,6.98
2018-01-16T10:48:23.162Z,6.96
2018-01-16T10:48:56.686Z,6.95
2018-01-16T10:49:30.279Z,6.94
2018-01-16T10:50:03.836Z,6.92
2018-01-16T10:50:38.413Z,6.91
2018-01-16T10:51:11.981Z,6.89
2018-01-16T10:51:46.091Z,6.88
2018-01-16T10:52:19.627Z,6.87
2018-01-16T10:52:53.226Z,6.85
2018-01-16T10:53:26.761Z,6.83
2018-01-16T10:54:00.318Z,6.82
2018-01-16T10:54:33.868Z,6.81
2018-01-16T10:55:07.419Z,6.81
2018-01-16T10:55:41.872Z,6.82
2018-01-16T10:56:15.412Z,6.83
2018-01-16T10:56:48.988Z,6.83
2018-01-16T10:57:22.504Z,6.84
2018-01-16T10:57:56.007Z,6.85
2018-01-16T10:58:29.530Z,6.87
2018-01-16T10:59:03.115Z,6.88
2018-01-16T10:59:36.737Z,6.90
2018-01-16T11:00:10.344Z,6.92
2018-01-16T11:00:43.871Z,6.93
2018-01-16T11:01:17.441Z,6.94
2018-01-16T11:01:51.210Z,6.95
2018-01-16T11:02:24.764Z,6.97
2018-01-16T11:02:58.283Z,6.99
2018-01-16T11:03:31.896Z,7.00
2018-01-16T11:04:06.233Z,7.01
2018-01-16T11:04:39.786Z,7.02
2018-01-16T11:05:13.388Z,7.03
2018-01-16T11:05:46.912Z,7.04
2018-01-16T11:06:20.440Z,7.04
2018-01-16T11:06:53.966Z,7.05
2018-01-16T11:07:27.692Z,7.04
2018-01-16T11:08:01.208Z,7.05
2018-01-16T11:08:34.733Z,7.05
2018-01-16T11:09:08.263Z,7.06
2018-01-16T11:09:41.844Z,7.06
2018-01-16T11:10:15.446Z,7.06
2018-01-16T11:11:12.802Z,7.07
2018-01-16T11:11:36.423Z,7.08
2018-01-16T11:12:00.033Z,7.09
2018-01-16T11:12:23.888Z,7.11
2018-01-16T11:12:47.119Z,7.12
2018-01-16T11:13:10.668Z,7.15
2018-01-16T11:13:34.205Z,7.17
2018-01-16T11:13:57.776Z,7.18
2018-01-16T11:14:21.502Z,7.19
2018-01-16T11:14:45.207Z,7.20
2018-01-16T11:15:08.832Z,7.20
2018-01-16T11:15:32.384Z,7.21
2018-01-16T11:15:55.906Z,7.20
2018-01-16T11:16:19.524Z,7.19
2018-01-16T11:16:42.765Z,7.19
2018-01-16T11:17:06.324Z,7.18
2018-01-16T11:17:29.906Z,7.17
2018-01-16T11:17:53.423Z,7.16
2018-01-16T11:18:17.273Z,7.14
2018-01-16T11:18:40.810Z,7.13
2018-01-16T11:19:04.368Z,7.10
2018-01-16T11:19:28.303Z,7.10
2018-01-16T11:19:51.604Z,7.09
2018-01-16T11:20:15.219Z,7.08
2018-01-16T11:20:38.495Z,7.07
2018-01-16T11:21:02.041Z,7.07
2018-01-16T11:21:25.667Z,7.07
2018-01-16T11:21:49.196Z,7.06
2018-01-16T11:22:13.019Z,7.07
2018-01-16T11:22:36.278Z,7.07
2018-01-16T11:22:59.797Z,7.06
2018-01-16T11:23:23.304Z,7.06
2018-01-16T11:23:46.931Z,7.06
2018-01-16T11:24:10.804Z,7.05
2018-01-16T11:24:34.419Z,7.04
2018-01-16T11:24:58.101Z,7.03
2018-01-16T11:25:21.654Z,7.03
2018-01-16T11:25:45.213Z,7.02
2018-01-16T11:26:08.738Z,7.01
2018-01-16T11:26:32.018Z,6.99
2018-01-16T11:26:55.592Z,6.97
2018-01-16T11:27:19.146Z,6.96
2018-01-16T11:27:42.667Z,6.94
2018-01-16T11:28:06.514Z,6.92
2018-01-16T11:28:30.119Z,6.91
2018-01-16T11:28:53.840Z,6.90
2018-01-16T11:29:17.414Z,6.89
2018-01-16T11:29:40.690Z,6.88
2018-01-16T11:30:04.222Z,6.88
2018-01-16T11:30:27.804Z,6.87
2018-01-16T11:30:51.408Z,6.86
2018-01-16T11:31:15.319Z,6.86
2018-01-16T11:31:39.152Z,6.84
2018-01-16T11:32:03.449Z,6.83
2018-01-16T11:32:26.979Z,6.84
2018-01-16T11:32:50.551Z,6.84
2018-01-16T11:33:14.087Z,6.83
2018-01-16T11:33:37.609Z,6.84
2018-01-16T11:34:01.164Z,6.84
2018-01-16T11:34:25.021Z,6.85
2018-01-16T11:34:48.279Z,6.86
2018-01-16T11:35:11.844Z,6.85
2018-01-16T11:35:35.370Z,6.87
2018-01-16T11:35:58.964Z,6.87
2018-01-16T11:36:22.936Z,6.88
2018-01-16T11:36:46.787Z,6.89
2018-01-16T11:37:10.041Z,6.89
2018-01-16T11:37:33.644Z,6.89
2018-01-16T11:37:57.168Z,6.89
2018-01-16T11:38:20.715Z,6.89
2018-01-16T11:38:43.984Z,6.89
2018-01-16T11:39:07.308Z,6.89
2018-01-16T11:39:30.881Z,6.89
2018-01-16T11:39:54.409Z,6.88
2018-01-16T11:40:17.964Z,6.88
2018-01-16T11:40:41.533Z,6.88
2018-01-16T11:41:04.792Z,6.87
2018-01-16T11:41:28.341Z,6.88
2018-01-16T11:41:51.882Z,6.88
2018-01-16T11:42:15.399Z,6.88
2018-01-16T11:42:39.215Z,6.88
2018-01-16T11:43:02.807Z,6.88
2018-01-16T11:43:26.355Z,6.89
2018-01-16T11:43:50.183Z,6.89
2018-01-16T11:44:13.739Z,6.89
2018-01-16T11:44:37.348Z,6.90
2018-01-16T11:45:00.937Z,6.90
2018-01-16T11:45:24.495Z,6.91
2018-01-16T11:45:48.030Z,6.91
2018-01-16T11:46:11.285Z,6.92
2018-01-16T11:46:34.838Z,6.92
2018-01-16T11:46:58.473Z,6.92
2018-01-16T11:47:22.017Z,6.93
2018-01-16T11:47:45.832Z,6.93
2018-01-16T11:48:09.391Z,6.93
2018-01-16T11:48:33.087Z,6.92
2018-01-16T11:48:56.646Z,6.92
2018-01-16T11:49:20.224Z,6.92
2018-01-16T11:49:43.600Z,6.91
2018-01-16T11:50:07.155Z,6.90
2018-01-16T11:50:30.764Z,6.90
2018-01-16T11:50:54.651Z,6.89
2018-01-16T11:51:18.190Z,6.88
2018-01-16T11:51:41.762Z,6.88
2018-01-16T11:52:05.629Z,6.88
2018-01-16T11:52:29.337Z,6.87
2018-01-16T11:52:52.904Z,6.86
2018-01-16T11:53:16.437Z,6.87
2018-01-16T11:53:39.956Z,6.87
2018-01-16T11:54:03.480Z,6.88
2018-01-16T11:54:26.720Z,6.88
2018-01-16T11:54:50.237Z,6.88
2018-01-16T11:55:13.809Z,6.88
2018-01-16T11:55:37.430Z,6.88
2018-01-16T11:56:01.270Z,6.88
2018-01-16T11:56:24.828Z,6.88
2018-01-16T11:56:48.352Z,6.89
2018-01-16T11:57:12.273Z,6.90
2018-01-16T11:57:36.149Z,6.92
2018-01-16T11:57:59.676Z,6.92
2018-01-16T11:58:23.218Z,6.94
2018-01-16T11:58:47.036Z,6.95
2018-01-16T11:59:10.591Z,6.96
2018-01-16T11:59:34.132Z,6.98
2018-01-16T11:59:57.363Z,7.00
2018-01-16T12:00:20.703Z,7.01
2018-01-16T12:00:44.211Z,7.02
2018-01-16T12:01:08.203Z,7.03
2018-01-16T12:01:31.778Z,7.04
2018-01-16T12:01:55.365Z,7.05
2018-01-16T12:02:19.285Z,7.06
2018-01-16T12:02:42.861Z,7.07
2018-01-16T12:03:06.754Z,7.08
2018-01-16T12:03:30.282Z,7.09
2018-01-16T12:03:53.620Z,7.10
2018-01-16T12:04:16.959Z,7.11
2018-01-16T12:04:40.406Z,7.11
2018-01-16T12:05:03.778Z,7.12
2018-01-16T12:05:27.417Z,7.13
2018-01-16T12:05:50.744Z,7.14
2018-01-16T12:06:14.415Z,7.15
2018-01-16T12:06:38.330Z,7.15
2018-01-16T12:07:01.735Z,7.15
2018-01-16T12:07:24.993Z,7.15
2018-01-16T12:07:48.381Z,7.16
2018-01-16T12:08:11.952Z,7.16
2018-01-16T12:08:35.505Z,7.16
2018-01-16T12:08:59.310Z,7.16
2018-01-16T12:09:22.992Z,7.15
2018-01-16T12:09:46.516Z,7.16
2018-01-16T12:10:10.331Z,7.16
2018-01-16T12:10:33.592Z,7.16
2018-01-16T12:10:57.150Z,7.17
2018-01-16T12:11:20.745Z,7.17
2018-01-16T12:11:44.322Z,7.17
2018-01-16T12:12:08.215Z,7.18
2018-01-16T12:12:31.475Z,7.18
2018-01-16T12:12:55.039Z,7.18
2018-01-16T12:13:18.618Z,7.19
2018-01-16T12:13:42.237Z,7.18
2018-01-16T12:14:06.140Z,7.18
2018-01-16T12:14:30.004Z,7.18
2018-01-16T12:14:53.607Z,7.18
2018-01-16T12:15:17.196Z,7.17
2018-01-16T12:15:40.716Z,7.17
2018-01-16T12:16:04.299Z,7.17
2018-01-16T12:16:28.036Z,7.16
2018-01-16T12:16:51.918Z,7.15
2018-01-16T12:17:15.197Z,7.15
2018-01-16T12:17:38.981Z,7.15
2018-01-16T12:18:02.804Z,7.14
2018-01-16T12:18:26.108Z,7.14
2018-01-16T12:18:49.681Z,7.13
2018-01-16T12:19:13.431Z,7.14
2018-01-16T12:19:37.049Z,7.14
2018-01-16T12:20:00.611Z,7.13
2018-01-16T12:20:23.968Z,7.14
2018-01-16T12:20:47.727Z,7.13
2018-01-16T12:21:13.143Z,7.13
2018-01-16T12:21:36.518Z,7.13
2018-01-16T12:21:59.855Z,7.12
2018-01-16T12:22:24.158Z,7.11
2018-01-16T12:22:47.690Z,7.10
2018-01-16T12:23:11.220Z,7.09
2018-01-16T12:23:34.798Z,7.08
2018-01-16T12:23:58.322Z,7.06
2018-01-16T12:24:21.926Z,7.05
2018-01-16T12:24:45.537Z,7.05
2018-01-16T12:25:09.287Z,7.03
2018-01-16T12:25:32.796Z,7.02
2018-01-16T12:26:01.209Z,7.00
2018-01-16T12:26:24.491Z,6.99
2018-01-16T12:26:48.099Z,6.97
2018-01-16T12:27:11.819Z,6.96
2018-01-16T12:27:36.181Z,6.94
2018-01-16T12:27:59.671Z,6.93
2018-01-16T12:28:23.485Z,6.92
2018-01-16T12:28:47.790Z,6.91
2018-01-16T12:29:11.369Z,6.90
2018-01-16T12:29:34.925Z,6.90
2018-01-16T12:29:58.759Z,6.90
2018-01-16T12:30:22.055Z,6.89
2018-01-16T12:30:45.290Z,6.88
2018-01-16T12:31:09.032Z,6.87
2018-01-16T12:31:32.635Z,6.87
2018-01-16T12:31:56.148Z,6.87
2018-01-16T12:32:19.814Z,6.87
2018-01-16T12:32:43.648Z,6.86
2018-01-16T12:33:07.175Z,6.87
2018-01-16T12:33:30.773Z,6.86
2018-01-16T12:33:54.688Z,6.86
2018-01-16T12:34:18.618Z,6.86
2018-01-16T12:34:41.879Z,6.86
2018-01-16T12:35:05.261Z,6.87
2018-01-16T12:35:28.838Z,6.86
2018-01-16T12:35:52.356Z,6.86
2018-01-16T12:36:15.899Z,6.86
2018-01-16T12:36:39.377Z,6.87
2018-01-16T12:37:02.983Z,6.87
2018-01-16T12:37:26.531Z,6.88
2018-01-16T12:37:50.378Z,6.88
2018-01-16T12:38:14.218Z,6.88
2018-01-16T12:38:37.739Z,6.88
2018-01-16T12:39:01.276Z,6.89
2018-01-16T12:39:24.572Z,6.89
2018-01-16T12:39:48.122Z,6.90
2018-01-16T12:40:11.642Z,6.91
2018-01-16T12:40:35.180Z,6.91
2018-01-16T12:41:28.762Z,6.92
2018-01-16T12:41:52.638Z,6.93
2018-01-16T12:42:16.658Z,6.93
2018-01-16T12:42:40.381Z,6.93
2018-01-16T12:43:03.911Z,6.93
2018-01-16T12:43:27.382Z,6.93
2018-01-16T12:43:51.179Z,6.92
2018-01-16T12:44:14.968Z,6.92
2018-01-16T12:44:39.586Z,6.92
2018-01-16T12:45:03.171Z,6.91
2018-01-16T12:45:26.980Z,6.91
2018-01-16T12:45:50.595Z,6.90
2018-01-16T12:46:14.167Z,6.90
2018-01-16T12:46:37.707Z,6.89
2018-01-16T12:47:01.544Z,6.89
2018-01-16T12:47:25.082Z,6.88
2018-01-16T12:47:48.628Z,6.88
2018-01-16T12:48:12.535Z,6.87
2018-01-16T12:48:35.851Z,6.86
2018-01-16T12:48:59.239Z,6.87
2018-01-16T12:49:22.807Z,6.87
2018-01-16T12:49:46.335Z,6.87
2018-01-16T12:50:09.855Z,6.87
2018-01-16T12:50:33.693Z,6.88
2018-01-16T12:50:57.225Z,6.88
2018-01-16T12:51:20.777Z,6.89
2018-01-16T12:51:44.317Z,6.90
2018-01-16T12:52:08.148Z,6.91
2018-01-16T12:52:31.691Z,6.93
2018-01-16T12:52:55.274Z,6.95
2018-01-16T12:53:19.116Z,6.98
2018-01-16T12:53:42.365Z,7.01
2018-01-16T12:54:05.928Z,7.02
2018-01-16T12:54:29.271Z,7.05
2018-01-16T12:54:52.909Z,7.07